Main page
METAR-TAF:

METAR-TAF

Airports :

Hawarden Airport

Hawarden, Wales

latitude: 53-10N, longitude: 002-59W, elevation: 10 m

Current weather observation

The report was made 42 minutes ago, at 17:50 UTC
Wind 11 kt from the South/Southeast
Temperature 7°C
Humidity 87%
Pressure 1013 hPa
Visibility: 9000 m
Broken clouds at a height of 1200 ft

METAR: EGNR 251750Z 15011KT 9000 BKN012 07/05 Q1013

Time: 18:32 (18:32 UTC)

Forecast

The report was made 4 hours and 16 minutes ago, at 14:16 UTC
Forecast valid from 25 at 15 UTC to 25 at 19 UTC
Wind 6 kt from the South/Southwest
Visibility 10 km or more
Scattered clouds at a height of 2200 ft
Broken clouds at a height of 3000 ft
Becoming
from 25 at 15 UTC to 25 at 18 UTC
Visibility: 7000 m
Broken clouds at a height of 1200 ft
Temporary
from 25 at 17 UTC to 25 at 19 UTC
Visibility: 4000 m
mist, light drizzle

TAF: EGNR 251416Z 2515/2519 20006KT 9999 SCT022 BKN030 BECMG 2515/2518 7000 BKN012 TEMPO 2517/2519 4000 BR -DZ

Weather observations and forecasts of more than 4000 airports (METAR and TAF reports).

The available stations are represented by yellow and red dots on the map.

Hover mouse over dot to see the name of the station.

Then click to see weather observations and forecasts.

To change the map : click on the green buttons with a black cross to zoom in, on the green button with a dash to zoom out, or on the green arrows for adjacent maps.


METAR-TAF: